createdAt,value
2018-01-20T00:02:14.476Z,0.50
2018-01-20T00:04:45.330Z,0.40
2018-01-20T00:07:16.178Z,0.47
2018-01-20T00:09:47.020Z,0.70
2018-01-20T00:12:17.877Z,0.80
2018-01-20T00:14:48.734Z,0.60
2018-01-20T00:17:19.608Z,0.60
2018-01-20T00:19:50.430Z,0.90
2018-01-20T00:22:21.258Z,1.13
2018-01-20T00:24:52.099Z,0.50
2018-01-20T00:27:22.943Z,0.80
2018-01-20T00:29:53.793Z,0.47
2018-01-20T00:32:24.660Z,0.73
2018-01-20T00:34:55.526Z,0.57
2018-01-20T00:37:26.362Z,0.40
2018-01-20T00:39:57.251Z,0.70
2018-01-20T00:42:28.098Z,0.50
2018-01-20T00:44:58.947Z,0.50
2018-01-20T00:47:29.810Z,0.60
2018-01-20T00:50:00.672Z,0.40
2018-01-20T00:52:31.519Z,0.40
2018-01-20T00:55:02.379Z,0.50
2018-01-20T00:57:33.206Z,0.80
2018-01-20T01:00:04.042Z,0.40
2018-01-20T01:02:34.904Z,0.50
2018-01-20T01:05:05.761Z,0.40
2018-01-20T01:07:36.680Z,0.30
2018-01-20T01:10:07.523Z,0.40
2018-01-20T01:12:38.382Z,0.40
2018-01-20T01:15:09.211Z,0.20
2018-01-20T01:17:40.035Z,0.40
2018-01-20T01:20:10.838Z,0.30
2018-01-20T01:22:41.678Z,0.40
2018-01-20T01:25:12.539Z,0.33
2018-01-20T01:27:43.445Z,0.30
2018-01-20T01:30:14.258Z,0.40
2018-01-20T01:32:45.111Z,0.30
2018-01-20T01:35:15.929Z,0.30
2018-01-20T01:37:46.818Z,0.30
2018-01-20T01:40:17.630Z,0.27
2018-01-20T01:42:48.483Z,0.30
2018-01-20T01:45:19.352Z,0.30
2018-01-20T01:47:50.214Z,0.40
2018-01-20T01:50:21.134Z,0.20
2018-01-20T01:52:51.982Z,0.33
2018-01-20T01:55:22.838Z,0.43
2018-01-20T01:57:53.690Z,0.27
2018-01-20T02:00:24.556Z,0.30
2018-01-20T02:02:55.418Z,0.30
2018-01-20T02:05:26.275Z,0.30
2018-01-20T02:07:57.123Z,0.40
2018-01-20T02:10:27.961Z,0.30
2018-01-20T02:12:58.814Z,0.30
2018-01-20T02:15:29.645Z,0.37
2018-01-20T02:18:00.474Z,0.20
2018-01-20T02:20:31.301Z,0.40
2018-01-20T02:23:02.155Z,0.20
2018-01-20T02:25:32.983Z,0.40
2018-01-20T02:28:03.814Z,0.20
2018-01-20T02:30:34.655Z,0.23
2018-01-20T02:33:05.492Z,0.30
2018-01-20T02:35:36.327Z,0.30
2018-01-20T02:38:07.193Z,0.30
2018-01-20T02:40:38.062Z,0.20
2018-01-20T02:43:08.895Z,0.20
2018-01-20T02:45:39.741Z,0.20
2018-01-20T02:48:10.575Z,0.20
2018-01-20T02:50:41.405Z,0.20
2018-01-20T02:53:12.211Z,0.20
2018-01-20T02:55:43.042Z,0.30
2018-01-20T02:58:13.866Z,0.20
2018-01-20T03:00:44.686Z,0.20
2018-01-20T03:03:15.510Z,0.20
2018-01-20T03:05:46.340Z,0.30
2018-01-20T03:08:17.151Z,0.27
2018-01-20T03:10:47.995Z,0.30
2018-01-20T03:13:18.841Z,0.30
2018-01-20T03:15:49.742Z,0.20
2018-01-20T03:18:20.558Z,0.40
2018-01-20T03:20:51.387Z,0.20
2018-01-20T03:23:22.227Z,0.20
2018-01-20T03:25:53.054Z,0.33
2018-01-20T03:28:23.919Z,0.27
2018-01-20T03:30:54.750Z,0.20
2018-01-20T03:33:25.593Z,0.40
2018-01-20T03:35:56.480Z,0.27
2018-01-20T03:38:27.313Z,0.20
2018-01-20T03:40:58.171Z,0.40
2018-01-20T03:43:29.019Z,0.20
2018-01-20T03:45:59.941Z,0.20
2018-01-20T03:48:30.786Z,0.30
2018-01-20T03:51:01.702Z,0.20
2018-01-20T03:53:32.530Z,0.30
2018-01-20T03:56:03.343Z,0.20
2018-01-20T03:58:34.178Z,0.20
2018-01-20T04:01:04.995Z,0.20
2018-01-20T04:03:35.832Z,0.20
2018-01-20T04:06:06.917Z,0.30
2018-01-20T04:08:37.783Z,0.28
2018-01-20T04:11:08.630Z,0.23
2018-01-20T04:13:39.470Z,0.20
2018-01-20T04:16:10.306Z,0.20
2018-01-20T04:18:41.159Z,0.30
2018-01-20T04:21:11.994Z,0.20
2018-01-20T04:23:42.872Z,0.20
2018-01-20T04:26:13.718Z,0.40
2018-01-20T04:28:44.582Z,0.30
2018-01-20T04:31:15.417Z,0.23
2018-01-20T04:33:46.264Z,0.20
2018-01-20T04:36:17.093Z,0.20
2018-01-20T04:38:47.939Z,0.20
2018-01-20T04:41:18.872Z,0.20
2018-01-20T04:43:49.706Z,0.20
2018-01-20T04:46:20.567Z,0.30
2018-01-20T04:48:51.409Z,0.20
2018-01-20T04:51:22.256Z,0.20
2018-01-20T04:53:53.107Z,0.30
2018-01-20T04:56:23.962Z,0.20
2018-01-20T04:58:54.815Z,0.20
2018-01-20T05:01:25.674Z,0.20
2018-01-20T05:03:56.502Z,0.20
2018-01-20T05:06:27.334Z,0.20
2018-01-20T05:08:58.144Z,0.20
2018-01-20T05:11:28.966Z,0.40
2018-01-20T05:13:59.776Z,0.30
2018-01-20T05:16:30.623Z,0.20
2018-01-20T05:19:01.446Z,0.30
2018-01-20T05:21:32.266Z,0.40
2018-01-20T05:24:03.109Z,0.20
2018-01-20T05:26:33.935Z,0.20
2018-01-20T05:29:04.756Z,0.30
2018-01-20T05:31:35.580Z,0.20
2018-01-20T05:34:06.402Z,0.20
2018-01-20T05:36:37.264Z,0.20
2018-01-20T05:39:08.102Z,0.20
2018-01-20T05:41:39.066Z,0.20
2018-01-20T05:44:09.888Z,0.30
2018-01-20T05:46:40.702Z,0.20
2018-01-20T05:49:11.542Z,0.20
2018-01-20T05:51:42.402Z,0.30
2018-01-20T05:54:14.154Z,0.30
2018-01-20T05:56:44.974Z,0.30
2018-01-20T05:59:15.805Z,0.47
2018-01-20T06:01:46.619Z,0.50
2018-01-20T06:04:17.446Z,0.30
2018-01-20T06:06:48.277Z,0.30
2018-01-20T06:09:19.098Z,0.30
2018-01-20T06:11:49.937Z,0.30
2018-01-20T06:14:20.769Z,0.30
2018-01-20T06:16:51.603Z,0.40
2018-01-20T06:19:22.434Z,0.30
2018-01-20T06:21:53.242Z,0.30
2018-01-20T06:24:24.093Z,0.40
2018-01-20T06:26:54.936Z,0.37
2018-01-20T06:29:25.781Z,0.27
2018-01-20T06:31:56.624Z,0.20
2018-01-20T06:34:27.446Z,0.47
2018-01-20T06:36:58.279Z,0.30
2018-01-20T06:39:29.106Z,0.27
2018-01-20T06:41:59.984Z,0.20
2018-01-20T06:44:30.854Z,0.33
2018-01-20T06:47:01.717Z,0.40
2018-01-20T06:49:32.570Z,0.40
2018-01-20T06:52:03.397Z,0.30
2018-01-20T06:54:34.238Z,0.40
2018-01-20T06:57:05.093Z,0.40
2018-01-20T06:59:35.962Z,0.30
2018-01-20T07:02:06.786Z,0.30
2018-01-20T07:04:37.618Z,0.30
2018-01-20T07:07:08.427Z,0.20
2018-01-20T07:09:39.290Z,0.40
2018-01-20T07:12:11.560Z,0.20
2018-01-20T07:14:42.870Z,0.25
2018-01-20T07:17:13.695Z,0.27
2018-01-20T07:19:44.593Z,0.50
2018-01-20T07:22:15.464Z,0.20
2018-01-20T07:24:46.308Z,0.30
2018-01-20T07:27:17.185Z,0.30
2018-01-20T07:29:48.026Z,0.30
2018-01-20T07:32:18.888Z,0.30
2018-01-20T07:34:49.741Z,0.20
2018-01-20T07:37:20.582Z,0.27
2018-01-20T07:39:51.438Z,0.23
2018-01-20T07:42:22.300Z,0.30
2018-01-20T07:44:53.164Z,0.40
2018-01-20T07:47:24.015Z,0.50
2018-01-20T07:49:54.914Z,0.60
2018-01-20T07:52:25.748Z,0.57
2018-01-20T07:54:56.556Z,0.70
2018-01-20T07:57:27.426Z,0.50
2018-01-20T07:59:58.275Z,0.60
2018-01-20T08:02:29.123Z,0.73
2018-01-20T08:04:59.979Z,0.40
2018-01-20T08:07:30.815Z,0.70
2018-01-20T08:10:01.665Z,0.90
2018-01-20T08:12:32.537Z,0.50
2018-01-20T08:15:03.384Z,0.60
2018-01-20T08:17:34.227Z,0.80
2018-01-20T08:20:05.070Z,1.00
2018-01-20T08:22:35.926Z,0.90
2018-01-20T08:25:06.788Z,0.70
2018-01-20T08:27:37.630Z,0.87
2018-01-20T08:30:08.551Z,0.70
2018-01-20T08:32:40.596Z,0.50
2018-01-20T08:35:11.425Z,1.00
2018-01-20T08:37:42.262Z,1.07
2018-01-20T08:40:13.102Z,0.87
2018-01-20T08:42:43.951Z,0.70
2018-01-20T08:45:14.799Z,0.97
2018-01-20T08:47:45.679Z,0.77
2018-01-20T08:50:16.510Z,1.47
2018-01-20T08:52:47.327Z,1.37
2018-01-20T08:55:18.154Z,1.43
2018-01-20T08:57:49.035Z,1.53
2018-01-20T09:00:19.895Z,1.80
2018-01-20T09:02:50.762Z,1.77
2018-01-20T09:05:21.591Z,1.60
2018-01-20T09:07:52.456Z,2.07
2018-01-20T09:10:23.295Z,1.73
2018-01-20T09:12:54.180Z,1.87
2018-01-20T09:15:25.045Z,1.70
2018-01-20T09:17:55.913Z,1.57
